Del Rio/Laughlin AFB, Texas
Current Conditions -  °F | °C
As of 1:58 AM on Tuesday 27 Jan 2015 (Local Time) from KDLF Reporting Station
Scattered Clouds Scattered Clouds  
Wind Chill: 46°   Ceiling: Unl
Heat Index: 46°   Visibility: 10mi
Dew Point: 39°   Wind: 3mph
Humidity: 75%   Direction: 360°N
Pressure: 30.21"   Gusts: NA
Location:  29.36°N, 100.78°W
Report Text: KDLF 270758Z AUTO 36003KT 10SM SCT210 08/04 A3021 RMK AO2 SLP226 T00780037 $
Loading
Personal Weather Stations






























Interactive Weather Map New forecast layout! Learn more

10-Day Weather Forecast

Advertisements
Track Severe Weather on mobile